Terminal Aerodrome Forecast
Issued by NWS

Home | Current Version | Previous Version | Text Only | Print | Product List | Glossary On
Versions: 1 2 3 4 5 6 7 8 9 10 11 12 13 14 15 16 17 18 19 20 21
000
FTUS43 KJKL 210700 AAA
TAFSME
TAF AMD
KSME 210753Z 2108/2206 VRB03KT P6SM SCT035 BKN090
     FM210830 00000KT 5SM BR SCT250
     FM210930 00000KT 1SM BR SCT005
     FM211030 00000KT 1/2SM FG SCT002
     FM211200 00000KT 5SM BR SCT015
     FM211400 VRB03KT P6SM SCT040=

USA.gov is the U.S. government's official web portal to all federal, state and local government web resources and services.